Time;durP1;ratioP1;P1;durP2;ratioP2;P2;SDS_P1;SDS_P2;PMS_P1;PMS_P2;Temp;Humidity;BMP_temperature;BMP_pressure;BME280_temperature;BME280_humidity;BME280_pressure;Samples;Min_cycle;Max_cycle;Signal;HPM_P1;HPM_P2
2021/05/04 00:00:55;;;;;;;4.87;4.57;;;3.40;1.40;;;4.31;89.53;95226.71;641067;221;23460;-69
2021/05/04 00:03:24;;;;;;;4.87;4.47;;;3.40;1.40;;;4.36;91.56;95226.55;641629;221;24542;-72
2021/05/04 00:05:54;;;;;;;4.87;4.47;;;3.70;1.40;;;4.31;91.85;95224.19;639565;221;24517;-72
2021/05/04 00:08:23;;;;;;;4.20;3.90;;;3.60;1.40;;;4.28;89.94;95219.26;640815;219;29863;-72
2021/05/04 00:10:52;;;;;;;6.53;6.03;;;3.20;1.40;;;4.05;91.37;95219.33;670573;211;24413;-72
2021/05/04 00:13:21;;;;;;;4.20;3.90;;;3.00;1.40;;;3.82;93.93;95221.83;670141;211;24624;-71
2021/05/04 00:18:24;;;;;;;4.60;4.30;;;2.80;1.40;;;3.66;96.08;95213.53;645386;212;31581;-72
2021/05/04 00:20:53;;;;;;;5.00;4.60;;;2.70;1.40;;;3.68;96.13;95207.84;635222;220;31863;-72
2021/05/04 00:23:22;;;;;;;5.03;4.60;;;2.70;1.40;;;3.64;97.42;95206.83;639504;221;23685;-71
2021/05/04 00:25:51;;;;;;;5.70;4.28;;;2.70;1.40;;;3.64;97.90;95203.08;635167;221;31766;-72
2021/05/04 00:28:20;;;;;;;5.03;4.63;;;2.70;1.40;;;3.59;98.28;95202.21;642102;221;28851;-71
2021/05/04 00:35:55;;;;;;;5.50;5.10;;;2.90;1.40;;;3.85;98.15;95189.06;645701;216;32131;-72
2021/05/04 00:38:23;;;;;;;5.40;5.00;;;3.00;1.40;;;3.92;98.13;95185.87;642094;221;23524;-72
2021/05/04 00:40:52;;;;;;;4.90;4.40;;;3.10;1.40;;;3.92;99.10;95187.95;638148;221;25976;-72
2021/05/04 00:43:25;;;;;;;5.10;4.70;;;3.20;1.40;;;3.91;98.24;95186.94;641375;221;24564;-72
2021/05/04 00:45:54;;;;;;;4.90;4.50;;;3.10;1.40;;;3.89;99.07;95187.50;638875;220;24508;-72
2021/05/04 00:48:24;;;;;;;5.23;4.50;;;2.90;1.40;;;3.86;98.70;95180.38;642534;221;24555;-72
2021/05/04 00:50:52;;;;;;;4.43;4.13;;;2.90;1.40;;;3.87;99.57;95180.59;641396;221;28860;-72
2021/05/04 00:53:21;;;;;;;4.10;3.80;;;3.00;1.40;;;3.89;99.90;95177.95;639949;221;24764;-72
2021/05/04 00:55:50;;;;;;;4.73;4.53;;;3.10;1.40;;;3.85;100.00;95170.02;640447;221;27656;-72
2021/05/04 00:58:19;;;;;;;5.47;5.07;;;3.00;1.40;;;3.85;100.00;95167.45;639290;220;26697;-71
2021/05/04 01:03:23;;;;;;;5.10;4.60;;;3.00;1.40;;;3.86;100.00;95162.35;647897;216;42897;-72
2021/05/04 01:05:52;;;;;;;6.00;4.60;;;3.10;1.40;;;3.83;100.00;95157.05;642849;220;23488;-72
2021/05/04 01:08:21;;;;;;;5.67;5.27;;;3.10;1.40;;;3.77;100.00;95151.27;642231;221;26670;-72
2021/05/04 01:10:50;;;;;;;5.40;5.00;;;2.90;1.40;;;3.77;100.00;95150.89;639504;221;24491;-71
2021/05/04 01:13:19;;;;;;;5.23;4.90;;;2.80;1.40;;;3.82;99.99;95143.64;640216;220;24566;-71
2021/05/04 01:15:48;;;;;;;4.90;4.50;;;2.90;1.40;;;3.90;100.00;95144.73;641002;221;24490;-72
2021/05/04 01:18:17;;;;;;;5.37;4.90;;;3.30;1.40;;;3.88;100.00;95135.91;640335;221;24524;-73
2021/05/04 01:20:49;;;;;;;4.27;4.07;;;3.20;1.40;;;3.81;100.00;95135.12;640071;221;24503;-73
2021/05/04 01:23:18;;;;;;;6.20;4.67;;;3.00;1.40;;;3.88;100.00;95139.51;637524;221;24581;-73
2021/05/04 01:25:47;;;;;;;5.10;4.70;;;3.10;1.40;;;3.89;100.00;95139.08;639565;221;24493;-70
2021/05/04 01:28:16;;;;;;;4.47;4.07;;;3.10;1.40;;;3.88;100.00;95141.97;638978;221;25646;-71
2021/05/04 01:30:45;;;;;;;4.57;4.20;;;3.20;1.40;;;3.94;100.00;95130.78;640202;221;24505;-70
2021/05/04 01:35:51;;;;;;;5.12;4.72;;;3.30;1.40;;;4.07;100.00;95124.43;647484;216;31645;-72
2021/05/04 01:38:20;;;;;;;4.83;4.43;;;3.50;1.40;;;4.12;100.00;95124.23;639906;220;23660;-72
2021/05/04 01:40:49;;;;;;;5.10;4.70;;;3.50;1.40;;;4.14;100.00;95124.92;655666;216;24503;-72
2021/05/04 01:43:18;;;;;;;4.80;4.50;;;3.40;1.40;;;4.19;100.00;95129.27;638904;220;24527;-70
2021/05/04 01:45:47;;;;;;;5.00;4.57;;;3.50;1.40;;;4.17;100.00;95123.47;666073;211;24441;-71
2021/05/04 01:48:16;;;;;;;4.57;4.27;;;3.50;1.40;;;4.14;100.00;95123.97;667680;211;24480;-71
2021/05/04 01:50:46;;;;;;;5.10;4.57;;;3.30;1.40;;;4.10;100.00;95121.50;668634;211;24418;-70
2021/05/04 01:53:15;;;;;;;4.60;4.30;;;3.40;1.40;;;4.12;100.00;95122.95;662592;211;31449;-70
2021/05/04 01:55:44;;;;;;;4.80;4.50;;;3.50;1.40;;;4.13;100.00;95120.91;653699;216;23422;-71
2021/05/04 01:58:13;;;;;;;4.68;4.28;;;3.50;1.40;;;4.11;100.00;95112.06;649003;216;31613;-71
2021/05/04 02:00:42;;;;;;;4.50;4.10;;;3.40;1.40;;;4.13;100.00;95114.52;671095;211;24506;-71
2021/05/04 02:03:11;;;;;;;4.07;3.87;;;3.40;1.40;;;4.16;100.00;95113.60;671147;211;28762;-71
2021/05/04 02:05:40;;;;;;;4.47;4.10;;;3.40;1.40;;;4.20;100.00;95114.02;672647;211;24418;-70
2021/05/04 02:08:09;;;;;;;3.90;3.60;;;3.50;1.40;;;4.19;100.00;95106.78;669047;211;29968;-70
2021/05/04 02:10:38;;;;;;;4.23;3.87;;;3.40;1.40;;;4.06;100.00;95105.61;655012;216;24446;-70
2021/05/04 02:13:07;;;;;;;4.67;4.27;;;3.20;1.40;;;3.95;100.00;95101.02;655226;216;29868;-71
2021/05/04 02:15:36;;;;;;;4.47;4.13;;;3.10;1.40;;;4.08;100.00;95103.62;640840;220;24497;-71
2021/05/04 02:18:05;;;;;;;4.27;3.97;;;3.40;1.40;;;4.09;100.00;95101.13;656634;214;29802;-70
2021/05/04 02:20:34;;;;;;;4.23;3.93;;;3.40;1.40;;;4.06;100.00;95099.28;633355;225;24600;-70
2021/05/04 02:23:04;;;;;;;4.07;3.77;;;3.30;1.40;;;4.18;100.00;95097.02;640880;220;25126;-70
2021/05/04 02:25:33;;;;;;;4.27;3.97;;;3.60;1.40;;;4.22;100.00;95092.02;658529;216;24471;-71
2021/05/04 02:28:03;;;;;;;4.80;4.33;;;3.60;1.40;;;4.21;100.00;95086.92;655317;215;31959;-71
2021/05/04 02:30:32;;;;;;;4.03;3.77;;;3.50;1.40;;;4.19;100.00;95086.55;632092;224;24562;-71
2021/05/04 02:33:01;;;;;;;4.63;4.23;;;3.50;1.40;;;4.16;100.00;95082.81;654307;215;24526;-71
2021/05/04 02:35:52;;;;;;;4.30;3.90;;;3.50;1.40;;;4.15;100.00;95082.97;621506;226;31931;-72
2021/05/04 02:38:21;;;;;;;4.50;4.10;;;3.50;1.40;;;4.14;100.00;95078.09;616196;229;23545;-72
2021/05/04 02:40:50;;;;;;;4.40;4.00;;;3.40;1.40;;;4.14;100.00;95071.28;623941;224;31969;-73
2021/05/04 02:43:19;;;;;;;5.03;4.62;;;3.40;1.40;;;4.15;100.00;95069.40;618435;228;32138;-72
2021/05/04 02:45:48;;;;;;;5.23;4.83;;;3.40;1.40;;;4.15;100.00;95071.92;629695;225;24622;-72
2021/05/04 02:48:17;;;;;;;4.37;3.93;;;3.40;1.40;;;4.15;100.00;95063.61;628019;225;25673;-72
2021/05/04 02:50:46;;;;;;;4.10;3.80;;;3.50;1.40;;;4.22;100.00;95062.13;623671;229;25624;-72
2021/05/04 02:53:15;;;;;;;4.07;3.80;;;3.50;1.40;;;4.27;100.00;95063.02;625083;228;24627;-71
2021/05/04 02:55:44;;;;;;;4.10;3.87;;;3.70;1.40;;;4.31;100.00;95056.75;625267;225;24546;-72
2021/05/04 02:58:13;;;;;;;4.50;4.20;;;3.60;1.40;;;4.30;100.00;95055.47;615352;229;32091;-72
2021/05/04 03:00:42;;;;;;;4.37;3.97;;;3.60;1.40;;;4.30;100.00;95056.44;626715;225;24572;-72
2021/05/04 03:03:12;;;;;;;4.97;4.57;;;3.50;1.40;;;4.20;100.00;95060.09;626510;225;24745;-72
2021/05/04 03:05:40;;;;;;;5.20;4.27;;;3.40;1.40;;;3.99;100.00;95050.65;628309;225;24568;-72
2021/05/04 03:08:09;;;;;;;5.07;4.67;;;3.00;1.40;;;3.86;100.00;95043.80;623438;229;24987;-72
2021/05/04 03:10:38;;;;;;;5.00;4.60;;;3.00;1.40;;;3.91;100.00;95035.88;621470;229;25630;-71
2021/05/04 03:13:07;;;;;;;4.10;3.80;;;3.10;1.40;;;4.00;100.00;95030.16;624444;228;25691;-72
2021/05/04 03:15:37;;;;;;;4.73;4.40;;;3.40;1.40;;;4.09;100.00;95031.14;626912;226;24562;-71
2021/05/04 03:18:06;;;;;;;4.60;4.30;;;3.50;1.40;;;4.11;100.00;95034.38;611594;229;24584;-72
2021/05/04 03:20:35;;;;;;;4.53;4.23;;;3.40;1.40;;;4.07;100.00;95026.75;613299;232;24588;-72
2021/05/04 03:25:21;;;;;;;4.47;4.10;;;3.20;1.40;;;3.95;100.00;95030.34;648904;212;31651;-72
2021/05/04 03:27:51;;;;;;;4.63;4.33;;;3.20;1.40;;;3.96;100.00;95021.91;639402;221;23463;-71
2021/05/04 03:30:20;;;;;;;4.43;4.07;;;3.20;1.40;;;3.90;100.00;95024.56;641806;221;24503;-72
2021/05/04 03:32:49;;;;;;;4.40;4.10;;;3.20;1.40;;;3.85;100.00;95021.81;642445;221;24549;-72
2021/05/04 03:35:51;;;;;;;4.35;3.95;;;3.20;1.40;;;3.80;100.00;95019.09;646434;216;31596;-70
2021/05/04 03:38:20;;;;;;;4.63;4.20;;;3.10;1.40;;;3.90;100.00;95023.41;642436;221;25637;-71
2021/05/04 03:40:50;;;;;;;3.50;3.20;;;3.20;1.40;;;4.02;99.35;95024.25;641598;221;24524;-71
2021/05/04 03:43:18;;;;;;;4.03;3.73;;;3.40;1.40;;;4.06;98.95;95020.16;639346;221;24566;-70
2021/05/04 03:45:47;;;;;;;4.93;3.80;;;3.40;1.40;;;4.10;98.90;95018.56;637586;221;31768;-71
2021/05/04 03:48:16;;;;;;;4.40;4.00;;;3.40;1.40;;;4.14;98.92;95016.34;645536;221;23488;-72
2021/05/04 03:50:47;;;;;;;4.25;3.85;;;3.40;1.40;;;4.16;99.37;95011.45;633461;220;31739;-71
2021/05/04 03:53:15;;;;;;;4.40;4.10;;;3.50;1.40;;;4.19;99.62;95014.28;639689;221;23474;-71
2021/05/04 03:55:44;;;;;;;3.83;3.53;;;3.50;1.40;;;4.19;99.89;95016.05;641353;221;24487;-71
2021/05/04 03:58:13;;;;;;;4.37;3.97;;;3.50;1.40;;;4.15;100.00;95003.63;634398;221;31816;-71
2021/05/04 04:00:42;;;;;;;4.87;4.37;;;3.50;1.40;;;4.15;100.00;95009.74;639731;220;23499;-70
2021/05/04 04:03:11;;;;;;;4.60;4.20;;;3.40;1.40;;;4.15;100.00;95005.94;640228;221;24522;-71
2021/05/04 04:05:40;;;;;;;4.30;4.00;;;3.40;1.40;;;4.14;100.00;95001.53;644837;219;31659;-71
2021/05/04 04:08:09;;;;;;;4.77;4.47;;;3.40;1.40;;;4.09;100.00;94997.34;670438;211;23400;-71
2021/05/04 04:10:39;;;;;;;4.70;4.30;;;3.40;1.40;;;3.99;100.00;94994.87;669310;211;24448;-71
2021/05/04 04:13:07;;;;;;;4.07;3.77;;;3.30;1.40;;;4.02;100.00;94994.80;668012;211;24506;-71
2021/05/04 04:18:10;;;;;;;4.22;3.83;;;3.40;1.40;;;4.03;100.00;94993.99;636148;216;42376;-72
2021/05/04 04:20:39;;;;;;;4.30;3.90;;;3.20;1.40;;;3.91;100.00;94992.92;629265;224;24631;-72
2021/05/04 04:23:08;;;;;;;4.35;3.95;;;3.10;1.40;;;3.87;100.00;94991.88;623698;225;31946;-72
2021/05/04 04:25:37;;;;;;;4.50;4.10;;;3.10;1.40;;;3.97;100.00;94994.94;626315;225;24105;-71
2021/05/04 04:28:07;;;;;;;7.13;4.27;;;3.20;1.40;;;3.92;100.00;94999.72;632016;222;24559;-72
2021/05/04 04:30:36;;;;;;;4.30;4.00;;;3.10;1.40;;;3.87;100.00;94997.19;656311;215;24458;-69
2021/05/04 04:35:52;;;;;;;4.25;3.67;;;2.90;1.40;;;3.67;100.00;94998.30;645446;212;31599;-70
2021/05/04 04:38:21;;;;;;;4.53;3.60;;;3.00;1.40;;;3.86;100.00;94997.47;642123;221;23496;-71
2021/05/04 04:40:50;;;;;;;4.50;4.20;;;3.20;1.40;;;3.99;100.00;94999.05;640519;221;24482;-70
2021/05/04 04:43:19;;;;;;;4.07;3.77;;;3.30;1.40;;;4.19;100.00;94998.03;640741;221;24511;-70
2021/05/04 04:45:48;;;;;;;4.28;3.78;;;3.60;1.40;;;4.32;98.77;95000.14;635024;221;31832;-70
2021/05/04 04:48:17;;;;;;;4.00;3.70;;;3.60;1.40;;;4.42;97.84;94999.06;641207;221;23722;-69
2021/05/04 04:50:46;;;;;;;4.47;4.07;;;3.70;1.40;;;4.50;96.84;95001.57;641212;221;27740;-70
2021/05/04 04:53:15;;;;;;;5.85;3.80;;;3.70;1.40;;;4.46;96.56;94998.40;634177;221;31732;-71
2021/05/04 04:55:44;;;;;;;4.10;3.60;;;3.50;1.40;;;4.29;98.17;94996.88;643076;220;23472;-71
2021/05/04 04:58:13;;;;;;;3.60;3.40;;;3.30;1.40;;;4.32;99.00;94990.80;669311;211;24440;-71
2021/05/04 05:00:42;;;;;;;3.80;3.50;;;3.50;1.40;;;4.41;98.78;94989.36;667654;211;25774;-71
2021/05/04 05:03:11;;;;;;;3.73;3.43;;;3.60;1.40;;;4.71;96.76;94983.09;672212;211;24467;-70
2021/05/04 05:05:40;;;;;;;4.20;3.90;;;4.00;1.40;;;5.03;94.13;94984.91;651257;216;26954;-70
2021/05/04 05:08:09;;;;;;;4.67;4.27;;;4.40;1.40;;;5.36;91.35;94978.41;655174;216;24493;-70
2021/05/04 05:13:13;;;;;;;3.70;3.10;;;5.00;1.40;;;5.90;87.67;94978.49;648429;212;31600;-74
2021/05/04 05:15:43;;;;;;;3.47;3.27;;;5.30;1.40;;;6.17;85.83;94979.79;640633;220;23498;-70
2021/05/04 05:20:49;;;;;;;3.80;3.40;;;5.60;1.40;;;6.60;84.24;94972.97;647151;212;31590;-72
2021/05/04 05:23:18;;;;;;;4.10;3.90;;;5.90;1.40;;;6.89;81.78;94964.20;643938;220;23578;-73
2021/05/04 05:25:47;;;;;;;3.30;3.00;;;6.20;1.40;;;7.17;79.49;94965.59;640380;221;24543;-72
2021/05/04 05:28:16;;;;;;;3.73;3.43;;;6.50;1.40;;;7.36;78.63;94967.14;640752;221;24527;-72
2021/05/04 05:30:45;;;;;;;2.90;2.60;;;6.70;1.40;;;7.62;77.94;94955.72;634057;221;31767;-73
2021/05/04 05:35:51;;;;;;;3.10;2.80;;;7.20;1.40;;;8.15;74.83;94954.36;622035;222;32323;-73
2021/05/04 05:38:20;;;;;;;2.93;2.73;;;7.40;1.40;;;8.42;73.19;94952.31;614481;230;25163;-74
2021/05/04 05:40:49;;;;;;;4.20;2.30;;;7.60;1.40;;;8.65;70.64;94948.98;611606;230;32163;-72
2021/05/04 05:43:18;;;;;;;4.90;3.50;;;7.90;1.40;;;8.94;70.80;94940.41;616554;230;23498;-70
2021/05/04 05:45:47;;;;;;;4.50;2.93;;;8.10;1.40;;;9.15;68.57;94942.53;615449;230;24618;-70
2021/05/04 05:48:17;;;;;;;2.53;2.43;;;8.30;1.40;;;9.38;66.67;94955.39;615452;230;25131;-70
2021/05/04 05:50:46;;;;;;;2.90;2.70;;;8.60;1.40;;;9.52;66.05;94954.75;615471;230;24650;-71
2021/05/04 05:53:15;;;;;;;3.10;2.30;;;8.70;1.40;;;9.74;65.55;94936.02;610993;230;32141;-70
2021/05/04 05:55:44;;;;;;;2.90;2.67;;;8.90;1.40;;;10.00;65.41;94939.98;615757;230;23566;-71
2021/05/04 05:58:13;;;;;;;2.57;2.47;;;9.20;1.40;;;10.07;61.56;94933.90;614441;230;24697;-71
2021/05/04 06:00:42;;;;;;;3.10;2.80;;;9.30;1.40;;;10.14;61.77;94929.27;615208;230;24583;-71
2021/05/04 06:03:11;;;;;;;4.12;2.30;;;9.40;1.40;;;10.23;61.57;94931.22;611909;230;32096;-71
2021/05/04 06:05:40;;;;;;;2.93;2.73;;;9.40;1.40;;;10.24;60.74;94928.16;614799;230;23523;-71
2021/05/04 06:08:09;;;;;;;2.90;2.70;;;9.40;1.40;;;10.26;60.00;94925.28;617738;230;24605;-71
2021/05/04 06:10:38;;;;;;;2.43;2.23;;;9.40;1.40;;;10.34;61.54;94928.59;615274;229;24597;-72
2021/05/04 06:13:07;;;;;;;2.42;2.22;;;9.40;1.40;;;10.38;60.91;94929.45;611204;229;32063;-70
2021/05/04 06:15:36;;;;;;;2.70;2.50;;;9.40;1.40;;;10.37;59.58;94931.38;616269;229;23523;-72
2021/05/04 06:18:05;;;;;;;2.60;2.47;;;9.50;1.40;;;10.54;60.31;94927.36;613106;230;24629;-71
2021/05/04 06:20:34;;;;;;;2.70;2.50;;;9.60;1.40;;;10.57;58.36;94932.47;615450;230;25161;-72
2021/05/04 06:23:03;;;;;;;4.07;2.67;;;9.70;1.40;;;10.72;60.17;94925.48;616393;230;24611;-72
2021/05/04 06:25:33;;;;;;;2.90;2.70;;;9.80;1.40;;;10.82;59.35;94921.73;628021;226;24613;-71
2021/05/04 06:28:07;;;;;;;5.10;2.87;;;9.90;1.40;;;10.93;58.48;94919.86;627604;226;24547;-72
2021/05/04 06:30:36;;;;;;;2.30;2.13;;;10.00;1.40;;;11.08;57.13;94919.84;627001;226;24537;-72
2021/05/04 06:35:51;;;;;;;2.50;2.30;;;10.30;1.40;;;11.30;56.33;94919.91;646082;216;31561;-71
2021/05/04 06:38:20;;;;;;;2.30;2.20;;;10.40;1.40;;;11.38;56.72;94916.59;643090;220;23473;-71
2021/05/04 06:40:50;;;;;;;2.50;2.30;;;10.50;1.40;;;11.72;57.54;94910.53;653751;216;24699;-71
2021/05/04 06:43:18;;;;;;;3.13;2.60;;;10.80;1.40;;;11.82;57.30;94901.58;670753;211;24979;-70
2021/05/04 06:45:47;;;;;;;2.30;2.10;;;10.80;1.40;;;12.02;56.40;94903.92;662487;211;31455;-71
2021/05/04 06:48:16;;;;;;;2.53;2.33;;;11.00;1.40;;;12.08;56.01;94893.31;662832;211;31389;-72
2021/05/04 06:50:45;;;;;;;2.70;2.50;;;11.10;1.40;;;12.14;55.09;94892.81;664806;211;32137;-72
2021/05/04 06:53:14;;;;;;;2.50;2.30;;;11.10;1.40;;;12.31;54.50;94894.34;663560;211;31430;-72
2021/05/04 06:55:43;;;;;;;3.10;2.80;;;11.30;1.40;;;12.41;54.35;94885.78;668692;211;23635;-72
2021/05/04 06:58:12;;;;;;;2.50;2.30;;;11.50;1.40;;;12.67;54.91;94884.39;653956;216;24453;-72
2021/05/04 07:00:41;;;;;;;2.63;2.43;;;11.70;1.40;;;12.70;53.88;94888.52;658744;216;28795;-73
2021/05/04 07:03:10;;;;;;;2.80;2.60;;;11.80;1.40;;;12.56;52.60;94886.92;668240;211;24460;-72
2021/05/04 07:05:39;;;;;;;2.97;2.63;;;11.70;1.40;;;12.71;53.27;94882.40;656435;216;24458;-71
2021/05/04 07:08:08;;;;;;;2.70;2.30;;;11.70;1.40;;;12.81;53.12;94882.94;663794;211;31590;-71
2021/05/04 07:10:38;;;;;;;2.50;2.33;;;11.80;1.40;;;12.98;53.82;94877.81;669060;211;24536;-72
2021/05/04 07:13:07;;;;;;;2.77;2.57;;;12.00;1.40;;;13.18;52.03;94883.31;667753;211;24482;-73
2021/05/04 07:15:36;;;;;;;2.60;2.43;;;12.20;1.40;;;13.38;53.93;94880.16;669622;211;24417;-72
2021/05/04 07:18:09;;;;;;;2.50;2.30;;;12.30;1.40;;;13.31;53.84;94880.07;648845;211;31573;-72
2021/05/04 07:20:34;;;;;;;3.20;3.00;;;12.30;1.40;;;13.43;51.61;94879.29;628230;225;24509;-72
2021/05/04 07:23:06;;;;;;;2.57;2.37;;;12.30;1.40;;;13.36;49.97;94876.94;655698;216;24444;-72
2021/05/04 07:25:32;;;;;;;2.60;2.40;;;12.30;1.40;;;13.32;50.65;94874.93;655005;215;24463;-72
2021/05/04 07:30:40;;;;;;;2.90;2.70;;;12.80;1.40;;;13.80;49.52;94878.72;646934;216;42175;-71
2021/05/04 07:35:52;;;;;;;4.53;2.20;;;12.90;1.40;;;14.09;49.43;94874.16;644858;212;31629;-69
2021/05/04 07:40:55;;;;;;;2.30;2.07;;;12.90;1.40;;;14.21;50.31;94865.70;648227;212;42296;-71
2021/05/04 07:43:24;;;;;;;2.70;2.50;;;13.10;1.40;;;14.19;50.06;94866.30;642965;220;24527;-72
2021/05/04 07:45:53;;;;;;;2.93;2.73;;;13.20;1.40;;;14.33;48.11;94867.78;639164;221;24517;-71
2021/05/04 07:48:23;;;;;;;2.53;2.33;;;13.30;1.40;;;14.65;48.67;94869.83;639973;221;28010;-72
2021/05/04 07:50:51;;;;;;;2.63;2.43;;;13.50;1.40;;;14.89;50.78;94860.91;639436;221;24548;-71
2021/05/04 07:53:20;;;;;;;2.90;2.70;;;13.70;1.40;;;15.07;48.03;94860.48;642957;221;23510;-72
2021/05/04 07:55:49;;;;;;;2.80;2.30;;;14.00;1.40;;;14.91;48.13;94859.41;639264;221;28915;-70
2021/05/04 07:58:18;;;;;;;2.77;2.57;;;13.90;1.40;;;14.95;48.31;94862.53;640013;220;24512;-71
2021/05/04 08:00:47;;;;;;;3.17;2.47;;;13.90;1.40;;;14.87;49.26;94856.61;641629;221;24610;-71
2021/05/04 08:03:16;;;;;;;2.57;2.37;;;14.00;1.40;;;14.63;46.33;94856.97;642100;221;24562;-71
2021/05/04 08:05:45;;;;;;;2.50;2.30;;;13.70;1.40;;;-143.44;100.00;122422.95;633755;220;32154;-71
2021/05/04 08:08:15;;;;;;;4.63;3.00;;;14.30;1.40;;;-143.44;100.00;122422.95;642261;221;23527;-70
2021/05/04 08:10:44;;;;;;;2.20;2.10;;;14.50;1.40;;;-143.44;100.00;122422.95;639382;221;24590;-71
2021/05/04 08:13:13;;;;;;;2.20;2.00;;;14.40;1.40;;;-143.44;100.00;122422.95;644456;221;25146;-71
2021/05/04 08:15:42;;;;;;;2.47;2.37;;;14.50;1.40;;;-143.44;100.00;122422.95;641090;220;26859;-71
2021/05/04 08:18:14;;;;;;;2.77;2.57;;;14.50;1.40;;;-143.44;100.00;122422.95;629358;223;24553;-71
2021/05/04 08:20:48;;;;;;;2.53;2.33;;;14.30;1.40;;;-143.44;100.00;122422.95;624988;226;26718;-70
2021/05/04 08:25:49;;;;;;;2.50;2.30;;;14.30;1.40;;;;;;649731;212;31572;-71
2021/05/04 08:28:17;;;;;;;2.67;2.47;;;14.30;1.40;;;;;;644628;221;25688;-70
2021/05/04 08:30:45;;;;;;;2.77;2.47;;;14.60;1.40;;;;;;640006;221;23550;-71
2021/05/04 08:35:51;;;;;;;2.30;2.10;;;15.00;1.40;;;16.12;45.42;94844.34;647752;212;31633;-72
2021/05/04 08:38:20;;;;;;;4.07;2.60;;;14.90;1.40;;;15.95;45.40;94839.05;644951;220;29826;-71
2021/05/04 08:40:49;;;;;;;2.40;2.10;;;14.90;1.40;;;16.23;44.94;94839.03;642258;221;23547;-72
2021/05/04 08:43:22;;;;;;;2.43;2.23;;;15.30;1.40;;;15.83;44.95;94832.14;642395;221;24536;-71
2021/05/04 08:45:59;;;;;;;2.63;2.43;;;15.00;1.40;;;-143.44;100.00;122422.95;641262;221;23950;-71
2021/05/04 08:48:28;;;;;;;2.93;2.73;;;15.40;1.40;;;-143.44;100.00;122422.95;639735;220;24533;-71
2021/05/04 08:50:57;;;;;;;2.60;2.20;;;15.60;1.40;;;-143.44;100.00;122422.95;642162;221;24523;-72
2021/05/04 08:53:26;;;;;;;2.30;2.20;;;15.50;1.40;;;-143.44;100.00;122422.95;638422;221;23506;-71
2021/05/04 08:55:55;;;;;;;2.00;1.90;;;15.40;1.40;;;-143.44;100.00;122422.95;639159;220;23950;-72
2021/05/04 08:58:24;;;;;;;1.90;1.80;;;15.40;1.40;;;-143.44;100.00;122422.95;639910;221;23502;-72
2021/05/04 09:00:55;;;;;;;1.93;1.60;;;15.30;1.40;;;-143.44;100.00;122422.95;634813;220;31718;-72
2021/05/04 09:03:33;;;;;;;1.97;1.87;;;15.30;1.40;;;-143.44;100.00;122422.95;639285;220;24556;-72
2021/05/04 09:06:04;;;;;;;2.27;2.10;;;15.50;1.40;;;-143.44;100.00;122422.95;640755;221;25602;-72
2021/05/04 09:08:40;;;;;;;1.93;1.70;;;15.40;1.40;;;-143.44;100.00;122422.95;639688;220;24521;-72
2021/05/04 09:11:32;;;;;;;2.30;2.20;;;15.30;1.40;;;-143.44;100.00;122422.95;640966;220;23525;-71
2021/05/04 09:17:05;;;;;;;2.25;1.50;;;17.00;1.40;;;;;;633155;220;39701;-71
2021/05/04 09:19:37;;;;;;;2.95;1.95;;;16.90;1.40;;;;;;601858;233;32302;-71
2021/05/04 09:21:55;;;;;;;3.80;2.53;;;16.90;1.40;;;;;;603269;234;29989;-71
2021/05/04 09:24:27;;;;;;;2.10;2.00;;;17.20;1.40;;;;;;630695;224;23587;-72
2021/05/04 09:29:33;;;;;;;2.70;2.00;;;17.20;1.40;;;;;;648244;216;31606;-72
2021/05/04 09:32:07;;;;;;;2.73;1.97;;;17.40;1.40;;;;;;643113;220;28417;-72
2021/05/04 09:35:51;;;;;;;3.60;1.90;;;16.60;1.40;;;16.92;34.31;94798.83;617869;226;31939;-71
2021/05/04 09:38:21;;;;;;;2.60;1.77;;;16.10;1.40;;;16.89;36.21;94828.30;615242;230;24601;-71
2021/05/04 09:40:50;;;;;;;3.12;2.00;;;16.20;1.40;;;17.08;36.16;94828.52;610634;229;32305;-71
2021/05/04 09:43:20;;;;;;;2.30;2.10;;;16.40;1.40;;;17.08;35.09;94801.39;619932;229;22562;-73
2021/05/04 09:45:50;;;;;;;2.47;1.60;;;16.30;1.40;;;17.49;36.92;94804.00;615016;230;25690;-73
2021/05/04 09:48:22;;;;;;;3.20;3.00;;;16.90;1.40;;;17.51;35.45;94788.08;615512;229;29952;-71
2021/05/04 09:50:59;;;;;;;3.70;2.20;;;16.90;1.40;;;17.41;35.66;94798.91;616382;229;27015;-72
2021/05/04 09:53:38;;;;;;;1.90;1.80;;;16.70;1.40;;;17.76;35.25;94776.38;615590;230;32114;-71
2021/05/04 09:56:03;;;;;;;1.60;1.50;;;17.10;1.40;;;17.68;34.93;94807.94;610509;230;32102;-71
2021/05/04 09:58:34;;;;;;;2.20;1.90;;;16.90;1.40;;;17.09;34.16;94794.81;624226;225;31936;-72
2021/05/04 10:01:03;;;;;;;2.60;1.70;;;16.30;1.40;;;16.95;35.15;94791.91;625971;225;31895;-72
2021/05/04 10:03:32;;;;;;;2.57;2.40;;;16.10;1.40;;;16.79;36.24;94785.57;615209;230;23571;-72
2021/05/04 10:06:01;;;;;;;2.90;2.60;;;16.00;1.40;;;17.13;36.51;94777.41;616290;230;23621;-72
2021/05/04 10:08:32;;;;;;;1.98;1.77;;;16.50;1.40;;;16.90;35.22;94771.33;609257;230;32127;-72
2021/05/04 10:11:01;;;;;;;2.40;2.20;;;15.90;1.40;;;16.86;35.28;94795.20;612060;230;29917;-72
2021/05/04 10:13:30;;;;;;;1.97;1.87;;;16.10;1.40;;;16.92;36.44;94785.19;614654;230;27938;-71
2021/05/04 10:15:59;;;;;;;4.40;1.63;;;16.10;1.40;;;17.05;36.03;94781.03;615787;230;27788;-71
2021/05/04 10:18:28;;;;;;;2.80;2.13;;;16.20;1.40;;;17.46;36.22;94783.06;603788;233;23667;-71
2021/05/04 10:20:57;;;;;;;1.80;1.70;;;16.60;1.40;;;17.46;36.87;94775.33;604072;233;23756;-71
2021/05/04 10:23:26;;;;;;;2.00;1.90;;;16.90;1.40;;;17.98;36.58;94779.05;604095;233;24660;-73
2021/05/04 10:25:59;;;;;;;1.70;1.60;;;17.10;1.40;;;17.34;36.73;94763.69;604165;234;31001;-72
2021/05/04 10:28:29;;;;;;;1.90;1.80;;;16.50;1.40;;;17.16;37.87;94769.62;614232;229;23612;-72
2021/05/04 10:31:00;;;;;;;2.07;1.97;;;16.30;1.40;;;17.49;38.08;94761.61;610350;234;23709;-72
2021/05/04 10:35:52;;;;;;;3.20;1.70;;;16.40;1.40;;;17.91;39.00;94742.80;645170;212;31556;-72
2021/05/04 10:38:20;;;;;;;1.90;1.80;;;16.90;1.40;;;17.73;38.79;94763.36;642509;221;24581;-70
2021/05/04 10:41:01;;;;;;;1.70;1.60;;;16.90;1.40;;;17.94;37.61;94736.81;641318;220;23525;-71
2021/05/04 10:43:33;;;;;;;2.10;1.57;;;17.10;1.40;;;18.05;37.03;94725.81;644089;221;23527;-71
2021/05/04 10:46:04;;;;;;;1.75;1.60;;;17.00;1.40;;;17.42;37.15;94735.39;634550;221;31745;-71
2021/05/04 10:48:46;;;;;;;1.53;1.43;;;16.60;1.40;;;17.50;38.71;94739.03;639951;221;24880;-71
2021/05/04 10:56:35;;;;;;;2.50;1.60;;;16.80;1.40;;;17.91;38.48;94754.91;619556;226;31908;-71
2021/05/04 10:59:05;;;;;;;1.97;1.87;;;17.10;1.40;;;18.39;36.68;94708.05;614380;230;24618;-71
2021/05/04 11:01:35;;;;;;;2.10;1.90;;;17.50;1.40;;;18.85;38.47;94712.45;614565;230;25763;-71
2021/05/04 11:04:03;;;;;;;2.00;1.55;;;18.00;1.40;;;18.82;36.45;94719.30;608884;229;32146;-71
2021/05/04 11:09:14;;;;;;;1.93;1.60;;;17.30;1.40;;;18.78;37.87;94704.36;616608;227;31914;-71
2021/05/04 11:11:45;;;;;;;2.00;1.60;;;17.60;1.40;;;18.45;39.23;94701.09;616549;230;25751;-71
2021/05/04 11:17:02;;;;;;;1.97;1.40;;;17.50;1.40;;;18.19;39.05;94697.16;640023;216;31701;-70
2021/05/04 11:19:32;;;;;;;1.63;1.53;;;17.20;1.40;;;18.47;39.63;94687.85;630133;224;23582;-70
2021/05/04 11:24:38;;;;;;;2.90;1.90;;;16.80;1.40;;;17.41;38.17;94681.76;647194;212;31640;-72
2021/05/04 11:27:22;;;;;;;1.80;1.70;;;16.40;1.40;;;17.24;40.50;94677.48;634243;221;32271;-71
2021/05/04 11:30:02;;;;;;;2.37;1.50;;;16.30;1.40;;;17.39;40.01;94685.43;645754;212;31711;-71
2021/05/04 11:32:43;;;;;;;2.80;2.13;;;16.30;1.40;;;17.19;39.37;94676.04;642685;221;23557;-70
2021/05/04 11:35:52;;;;;;;2.72;1.55;;;16.60;1.40;;;17.28;38.91;94687.45;647345;216;31592;-71
2021/05/04 11:38:21;;;;;;;2.57;2.03;;;16.30;1.40;;;17.18;39.40;94682.38;641374;221;27747;-71
2021/05/04 11:40:50;;;;;;;1.70;1.60;;;16.20;1.40;;;17.36;39.42;94670.08;641690;221;23534;-70
2021/05/04 11:43:20;;;;;;;2.30;1.93;;;16.40;1.40;;;17.82;41.36;94670.08;643628;220;23511;-71
2021/05/04 11:45:49;;;;;;;2.57;1.90;;;16.70;1.40;;;17.85;39.02;94672.92;639370;221;23582;-71
2021/05/04 11:48:18;;;;;;;1.97;1.87;;;16.80;1.40;;;17.55;39.47;94668.73;639952;221;23537;-70
2021/05/04 11:50:48;;;;;;;1.87;1.60;;;16.60;1.40;;;17.83;39.11;94662.21;635286;220;31952;-70